createdAt,value
2022-12-12T00:00:09.981Z,15.57
2022-12-12T00:02:41.037Z,16.38
2022-12-12T00:05:09.021Z,16.48
2022-12-12T00:07:36.310Z,15.32
2022-12-12T00:10:04.542Z,14.52
2022-12-12T00:12:31.794Z,16.33
2022-12-12T00:14:59.007Z,16.05
2022-12-12T00:17:26.259Z,15.40
2022-12-12T00:19:53.563Z,15.25
2022-12-12T00:22:20.806Z,15.38
2022-12-12T00:24:48.010Z,16.25
2022-12-12T00:27:15.582Z,15.80
2022-12-12T00:29:42.812Z,15.98
2022-12-12T00:32:10.054Z,15.88
2022-12-12T00:34:37.414Z,15.10
2022-12-12T00:37:04.690Z,15.38
2022-12-12T00:39:31.908Z,15.80
2022-12-12T00:41:59.134Z,15.38
2022-12-12T00:44:26.394Z,15.65
2022-12-12T00:46:53.669Z,16.60
2022-12-12T00:49:20.968Z,16.63
2022-12-12T00:51:48.409Z,16.23
2022-12-12T00:54:15.652Z,15.23
2022-12-12T00:56:42.851Z,15.77
2022-12-12T00:59:10.078Z,15.02
2022-12-12T01:01:37.353Z,15.55
2022-12-12T01:04:05.792Z,15.80
2022-12-12T01:06:33.142Z,17.10
2022-12-12T01:09:00.363Z,16.77
2022-12-12T01:11:27.671Z,15.25
2022-12-12T01:13:55.207Z,15.68
2022-12-12T01:16:22.790Z,16.77
2022-12-12T01:18:50.116Z,16.58
2022-12-12T01:21:18.109Z,16.98
2022-12-12T01:23:45.448Z,15.98
2022-12-12T01:26:15.323Z,15.52
2022-12-12T01:28:42.746Z,15.57
2022-12-12T01:31:10.211Z,14.75
2022-12-12T01:33:37.703Z,17.40
2022-12-12T01:36:05.233Z,15.70
2022-12-12T01:38:32.465Z,15.55
2022-12-12T01:40:59.680Z,14.02
2022-12-12T01:43:28.894Z,16.02
2022-12-12T01:46:02.665Z,14.80
2022-12-12T01:48:37.199Z,15.85
2022-12-12T01:51:11.745Z,13.98
2022-12-12T01:53:38.998Z,14.57
2022-12-12T01:56:08.919Z,14.30
2022-12-12T01:58:36.158Z,15.20
2022-12-12T02:01:03.434Z,15.98
2022-12-12T02:03:30.666Z,15.30
2022-12-12T02:05:59.990Z,15.30
2022-12-12T02:08:27.256Z,14.82
2022-12-12T02:10:54.479Z,14.60
2022-12-12T02:13:26.273Z,15.95
2022-12-12T02:15:59.692Z,15.13
2022-12-12T02:19:03.711Z,14.73
2022-12-12T02:21:36.704Z,15.30
2022-12-12T02:24:03.887Z,13.80
2022-12-12T02:26:42.801Z,14.43
2022-12-12T02:29:51.711Z,15.43
2022-12-12T02:32:32.395Z,14.32
2022-12-12T02:35:17.159Z,13.90
2022-12-12T02:38:02.941Z,14.82
2022-12-12T02:40:45.774Z,13.68
2022-12-12T02:43:20.970Z,14.75
2022-12-12T02:45:50.844Z,14.90
2022-12-12T02:48:26.022Z,14.50
2022-12-12T02:50:53.943Z,14.40
2022-12-12T02:53:22.306Z,14.73
2022-12-12T02:55:50.194Z,14.75
2022-12-12T02:58:18.334Z,15.82
2022-12-12T03:01:18.888Z,14.80
2022-12-12T03:04:20.419Z,14.63
2022-12-12T03:07:32.537Z,15.73
2022-12-12T03:10:19.559Z,13.93
2022-12-12T03:13:16.227Z,15.15
2022-12-12T03:16:10.206Z,15.18
2022-12-12T03:18:51.270Z,14.10
2022-12-12T03:21:47.066Z,14.35
2022-12-12T03:24:21.952Z,13.10
2022-12-12T03:27:10.915Z,14.40
2022-12-12T03:29:51.896Z,14.20
2022-12-12T03:32:22.683Z,14.82
2022-12-12T03:34:52.574Z,13.75
2022-12-12T03:37:40.143Z,13.98
2022-12-12T03:40:12.587Z,12.90
2022-12-12T03:42:42.201Z,14.35
2022-12-12T03:45:22.359Z,14.05
2022-12-12T03:47:56.755Z,13.48
2022-12-12T03:53:02.978Z,12.57
2022-12-12T03:55:36.966Z,12.70
2022-12-12T03:58:16.599Z,12.95
2022-12-12T04:00:44.189Z,13.15
2022-12-12T04:03:26.655Z,13.25
2022-12-12T04:06:23.624Z,13.98
2022-12-12T04:09:09.433Z,13.80
2022-12-12T04:12:00.305Z,14.48
2022-12-12T04:14:51.513Z,14.20
2022-12-12T04:17:19.533Z,13.20
2022-12-12T04:20:17.442Z,13.30
2022-12-12T04:23:17.536Z,12.95
2022-12-12T04:26:24.389Z,14.07
2022-12-12T04:29:08.477Z,14.50
2022-12-12T04:31:40.911Z,10.45
2022-12-12T04:34:12.607Z,15.82
2022-12-12T04:36:39.817Z,13.82
2022-12-12T04:39:07.088Z,13.95
2022-12-12T04:41:34.707Z,15.20
2022-12-12T04:44:02.048Z,14.73
2022-12-12T04:46:29.433Z,13.80
2022-12-12T04:49:03.533Z,13.63
2022-12-12T04:51:37.370Z,12.95
2022-12-12T04:54:19.788Z,10.95
2022-12-12T04:56:49.444Z,12.65
2022-12-12T04:59:17.200Z,14.30
2022-12-12T05:01:52.632Z,13.35
2022-12-12T05:04:35.310Z,13.40
2022-12-12T05:07:07.235Z,13.35
2022-12-12T05:09:35.355Z,14.07
2022-12-12T05:12:02.567Z,13.68
2022-12-12T05:14:30.999Z,13.18
2022-12-12T05:17:06.702Z,13.68
2022-12-12T05:19:33.992Z,14.25
2022-12-12T05:22:02.760Z,13.45
2022-12-12T05:24:31.259Z,13.95
2022-12-12T05:27:00.698Z,13.23
2022-12-12T05:29:27.994Z,13.23
2022-12-12T05:31:55.247Z,13.95
2022-12-12T05:34:22.463Z,13.32
2022-12-12T05:36:50.338Z,14.07
2022-12-12T05:39:17.573Z,12.98
2022-12-12T05:41:44.803Z,13.80
2022-12-12T05:44:11.998Z,13.38
2022-12-12T05:46:39.283Z,13.98
2022-12-12T05:49:06.556Z,13.63
2022-12-12T05:51:34.271Z,12.48
2022-12-12T05:54:01.521Z,13.80
2022-12-12T05:56:28.738Z,14.35
2022-12-12T05:58:55.957Z,13.73
2022-12-12T06:01:23.174Z,13.40
2022-12-12T06:03:50.523Z,13.18
2022-12-12T06:06:17.783Z,13.90
2022-12-12T06:08:45.295Z,12.75
2022-12-12T06:11:12.579Z,14.15
2022-12-12T06:13:39.818Z,13.07
2022-12-12T06:16:08.603Z,13.10
2022-12-12T06:18:36.114Z,15.38
2022-12-12T06:21:10.588Z,13.02
2022-12-12T06:23:38.622Z,13.90
2022-12-12T06:26:06.627Z,13.40
2022-12-12T06:28:33.844Z,14.27
2022-12-12T06:31:01.283Z,14.55
2022-12-12T06:33:29.403Z,13.52
2022-12-12T06:36:03.984Z,14.60
2022-12-12T06:38:31.613Z,13.80
2022-12-12T06:40:58.851Z,14.43
2022-12-12T06:43:26.230Z,13.73
2022-12-12T06:45:53.493Z,15.02
2022-12-12T06:48:20.711Z,15.18
2022-12-12T06:50:47.897Z,15.60
2022-12-12T06:53:15.166Z,15.15
2022-12-12T06:55:43.028Z,14.77
2022-12-12T06:58:10.492Z,14.40
2022-12-12T07:00:37.730Z,14.20
2022-12-12T07:03:05.029Z,15.13
2022-12-12T07:05:32.452Z,14.10
2022-12-12T07:08:02.692Z,15.00
2022-12-12T07:10:30.418Z,14.75
2022-12-12T07:12:57.787Z,14.73
2022-12-12T07:15:25.092Z,13.93
2022-12-12T07:17:53.693Z,12.95
2022-12-12T07:20:21.064Z,13.73
2022-12-12T07:22:48.266Z,14.05
2022-12-12T07:25:15.926Z,13.60
2022-12-12T07:27:43.185Z,13.23
2022-12-12T07:30:10.995Z,12.70
2022-12-12T07:32:38.193Z,13.25
2022-12-12T07:35:05.650Z,12.98
2022-12-12T07:37:32.863Z,11.15
2022-12-12T07:40:00.074Z,12.80
2022-12-12T07:42:27.287Z,12.70
2022-12-12T07:44:54.503Z,11.68
2022-12-12T07:47:21.868Z,12.23
2022-12-12T07:49:49.080Z,11.85
2022-12-12T07:52:16.314Z,12.95
2022-12-12T07:54:44.033Z,11.75
2022-12-12T07:57:11.300Z,11.82
2022-12-12T07:59:38.635Z,12.18
2022-12-12T08:02:06.140Z,11.20
2022-12-12T08:04:33.400Z,10.90
2022-12-12T08:07:05.447Z,11.38
2022-12-12T08:09:36.574Z,11.95
2022-12-12T08:12:03.984Z,11.57
2022-12-12T08:14:31.197Z,11.35
2022-12-12T08:16:58.782Z,11.30
2022-12-12T08:19:26.034Z,12.00
2022-12-12T08:21:53.261Z,10.32
2022-12-12T08:24:20.538Z,11.55
2022-12-12T08:26:49.600Z,11.23
2022-12-12T08:29:16.819Z,10.23
2022-12-12T08:31:44.217Z,11.10
2022-12-12T08:34:11.545Z,9.93
2022-12-12T08:36:38.774Z,11.55
2022-12-12T08:39:10.550Z,13.50
2022-12-12T08:41:39.514Z,13.80
2022-12-12T08:44:07.964Z,13.07
2022-12-12T08:46:35.440Z,14.60
2022-12-12T08:49:02.864Z,14.85
2022-12-12T08:51:30.146Z,16.17
2022-12-12T08:53:57.437Z,14.85
2022-12-12T08:56:24.638Z,15.20
2022-12-12T08:58:51.966Z,15.40
2022-12-12T09:01:21.619Z,14.68
2022-12-12T09:03:49.109Z,15.32
2022-12-12T09:06:16.645Z,12.70
2022-12-12T09:08:45.683Z,12.15
2022-12-12T09:11:13.197Z,11.70
2022-12-12T09:13:40.606Z,9.98
2022-12-12T09:16:08.420Z,9.90
2022-12-12T09:18:36.160Z,9.15
2022-12-12T09:21:03.536Z,9.32
2022-12-12T09:23:30.962Z,9.10
2022-12-12T09:25:58.286Z,8.98
2022-12-12T09:28:25.857Z,8.82
2022-12-12T09:30:53.073Z,9.82
2022-12-12T09:33:20.344Z,8.85
2022-12-12T09:35:47.643Z,8.18
2022-12-12T09:38:15.353Z,9.38
2022-12-12T09:40:55.826Z,9.55
2022-12-12T09:43:29.680Z,8.95
2022-12-12T09:45:57.370Z,9.93
2022-12-12T09:48:39.102Z,9.80
2022-12-12T09:51:06.400Z,10.00
2022-12-12T09:53:33.606Z,8.50
2022-12-12T09:56:07.680Z,10.35
2022-12-12T09:58:56.925Z,8.85
2022-12-12T10:01:37.180Z,8.05
2022-12-12T10:04:33.576Z,7.50
2022-12-12T10:07:13.514Z,7.30
2022-12-12T10:10:02.834Z,7.20
2022-12-12T10:12:30.108Z,7.82
2022-12-12T10:15:05.937Z,8.13
2022-12-12T10:17:35.372Z,7.88
2022-12-12T10:20:13.240Z,6.75
2022-12-12T10:22:43.778Z,6.93
2022-12-12T10:25:22.675Z,7.75
2022-12-12T10:28:05.019Z,6.65
2022-12-12T10:30:32.233Z,6.78
2022-12-12T10:33:06.567Z,7.28
2022-12-12T10:35:41.561Z,7.50
2022-12-12T10:38:26.830Z,7.43
2022-12-12T10:40:59.006Z,6.70
2022-12-12T10:43:48.479Z,7.57
2022-12-12T10:46:38.645Z,7.13
2022-12-12T10:49:16.266Z,6.65
2022-12-12T10:51:44.666Z,7.43
2022-12-12T10:54:18.227Z,6.93
2022-12-12T10:57:05.367Z,4.80
2022-12-12T10:59:42.509Z,6.78
2022-12-12T11:02:38.520Z,6.63
2022-12-12T11:05:05.931Z,6.85
2022-12-12T11:07:43.946Z,7.22
2022-12-12T11:10:35.327Z,6.50
2022-12-12T11:13:11.626Z,6.18
2022-12-12T11:15:49.863Z,6.70
2022-12-12T11:18:19.065Z,5.88
2022-12-12T11:20:51.308Z,6.60
2022-12-12T11:23:23.887Z,6.00
2022-12-12T11:25:57.955Z,5.78
2022-12-12T11:28:27.069Z,5.90
2022-12-12T11:30:54.631Z,6.13
2022-12-12T11:33:23.849Z,5.50
2022-12-12T11:35:55.208Z,5.18
2022-12-12T11:38:27.243Z,5.50
2022-12-12T11:41:02.541Z,5.38
2022-12-12T11:43:45.363Z,4.95
2022-12-12T11:46:15.690Z,5.38
2022-12-12T11:48:51.869Z,5.30
2022-12-12T11:51:36.178Z,4.68
2022-12-12T11:54:20.709Z,4.70
2022-12-12T11:57:29.647Z,5.25
2022-12-12T12:00:11.849Z,3.85
2022-12-12T12:02:58.875Z,3.90
2022-12-12T12:05:35.671Z,3.53
2022-12-12T12:08:21.516Z,4.35
2022-12-12T12:10:57.850Z,4.05
2022-12-12T12:13:31.498Z,4.28
2022-12-12T12:18:47.103Z,5.70
2022-12-12T12:21:42.382Z,6.53
2022-12-12T12:24:23.228Z,6.45
2022-12-12T12:27:09.880Z,6.80
2022-12-12T12:30:04.202Z,5.53
2022-12-12T12:32:48.106Z,5.50
2022-12-12T12:35:24.536Z,5.47
2022-12-12T12:38:17.471Z,5.93
2022-12-12T12:41:26.470Z,5.85
2022-12-12T12:44:09.696Z,6.22
2022-12-12T12:46:39.949Z,5.28
2022-12-12T12:49:28.797Z,5.85
2022-12-12T12:51:59.563Z,5.63
2022-12-12T12:54:40.058Z,6.10
2022-12-12T12:57:26.385Z,4.90
2022-12-12T13:00:04.828Z,4.45
2022-12-12T13:03:00.142Z,3.75
2022-12-12T13:05:36.561Z,3.95
2022-12-12T13:08:18.799Z,3.83
2022-12-12T13:10:50.001Z,4.88
2022-12-12T13:13:29.189Z,4.75
2022-12-12T13:16:17.169Z,4.35
2022-12-12T13:18:46.074Z,4.32
2022-12-12T13:21:33.218Z,5.32
2022-12-12T13:24:05.954Z,5.10
2022-12-12T13:26:47.990Z,4.53
2022-12-12T13:29:24.085Z,4.90
2022-12-12T13:32:06.552Z,4.85
2022-12-12T13:34:33.799Z,4.72
2022-12-12T13:37:02.481Z,3.75
2022-12-12T13:39:34.742Z,4.90
2022-12-12T13:42:05.310Z,4.32
2022-12-12T13:44:45.755Z,4.35
2022-12-12T13:47:22.135Z,5.20
2022-12-12T13:50:11.138Z,5.82
2022-12-12T13:52:42.444Z,4.68
2022-12-12T13:55:12.893Z,4.65
2022-12-12T13:58:02.554Z,4.55
2022-12-12T14:00:30.964Z,4.47
2022-12-12T14:03:01.845Z,5.00
2022-12-12T14:05:48.142Z,4.63
2022-12-12T14:08:15.392Z,4.85
2022-12-12T14:10:45.667Z,4.93
2022-12-12T14:13:21.668Z,5.30
2022-12-12T14:15:57.584Z,5.47
2022-12-12T14:18:30.322Z,5.10
2022-12-12T14:21:02.257Z,5.80
2022-12-12T14:23:42.936Z,5.65
2022-12-12T14:26:27.916Z,5.38
2022-12-12T14:29:17.217Z,5.18
2022-12-12T14:31:50.554Z,4.85
2022-12-12T14:34:29.586Z,5.50
2022-12-12T14:37:15.278Z,4.70
2022-12-12T14:39:45.545Z,5.40
2022-12-12T14:43:21.115Z,5.75
2022-12-12T14:45:31.480Z,5.40
2022-12-12T14:48:17.933Z,4.47
2022-12-12T14:51:03.376Z,5.03
2022-12-12T14:53:36.695Z,6.53
2022-12-12T14:56:53.175Z,7.22
2022-12-12T14:59:24.864Z,5.55
2022-12-12T15:01:54.172Z,7.13
2022-12-12T15:04:31.702Z,8.38
2022-12-12T15:06:59.983Z,7.80
2022-12-12T15:09:34.643Z,7.32
2022-12-12T15:12:10.984Z,6.28
2022-12-12T15:14:39.308Z,7.30
2022-12-12T15:17:15.898Z,6.95
2022-12-12T15:19:44.813Z,7.28
2022-12-12T15:22:33.284Z,6.93
2022-12-12T15:25:01.963Z,8.18
2022-12-12T15:27:38.630Z,7.88
2022-12-12T15:30:36.890Z,8.50
2022-12-12T15:33:05.461Z,9.07
2022-12-12T15:35:32.731Z,9.45
2022-12-12T15:38:07.449Z,8.73
2022-12-12T15:40:35.669Z,8.85
2022-12-12T15:43:11.758Z,9.27
2022-12-12T15:45:50.725Z,9.50
2022-12-12T15:48:18.352Z,9.38
2022-12-12T15:50:45.881Z,10.80
2022-12-12T15:53:27.782Z,10.85
2022-12-12T15:56:14.860Z,10.55
2022-12-12T15:58:42.774Z,10.65
2022-12-12T16:01:20.621Z,11.55
2022-12-12T16:04:02.944Z,10.95
2022-12-12T16:06:35.076Z,10.82
2022-12-12T16:09:10.663Z,10.15
2022-12-12T16:11:42.950Z,10.13
2022-12-12T16:14:40.242Z,9.23
2022-12-12T16:17:21.743Z,8.25
2022-12-12T16:19:58.869Z,9.13
2022-12-12T16:22:36.359Z,10.02
2022-12-12T16:25:22.378Z,8.98
2022-12-12T16:28:18.970Z,9.40
2022-12-12T16:31:00.124Z,9.93
2022-12-12T16:33:35.060Z,10.50
2022-12-12T16:36:04.183Z,9.70
2022-12-12T16:38:31.614Z,9.98
2022-12-12T16:41:04.328Z,10.13
2022-12-12T16:43:31.619Z,10.18
2022-12-12T16:45:58.962Z,10.40
2022-12-12T16:48:36.161Z,10.85
2022-12-12T16:51:05.191Z,11.20
2022-12-12T16:53:33.492Z,11.48
2022-12-12T16:56:02.152Z,12.30
2022-12-12T16:58:29.522Z,12.30
2022-12-12T17:00:58.904Z,11.32
2022-12-12T17:03:26.386Z,11.63
2022-12-12T17:05:53.610Z,10.05
2022-12-12T17:08:20.931Z,11.00
2022-12-12T17:10:48.847Z,10.60
2022-12-12T17:13:17.999Z,10.73
2022-12-12T17:15:45.248Z,11.13
2022-12-12T17:18:12.484Z,10.90
2022-12-12T17:20:40.010Z,11.73
2022-12-12T17:23:27.641Z,12.07
2022-12-12T17:26:01.018Z,10.88
2022-12-12T17:28:30.864Z,11.68
2022-12-12T17:30:58.099Z,11.52
2022-12-12T17:33:26.259Z,12.18
2022-12-12T17:36:00.829Z,11.38
2022-12-12T17:38:30.206Z,10.90
2022-12-12T17:40:57.835Z,11.70
2022-12-12T17:43:25.349Z,12.68
2022-12-12T17:46:03.870Z,12.60
2022-12-12T17:48:32.447Z,12.68
2022-12-12T17:51:04.440Z,12.98
2022-12-12T17:53:32.689Z,12.13
2022-12-12T17:56:01.777Z,12.05
2022-12-12T17:58:36.340Z,12.55
2022-12-12T18:01:31.372Z,14.82
2022-12-12T18:06:27.128Z,13.77
2022-12-12T18:08:54.680Z,13.05
2022-12-12T18:11:26.675Z,13.05
2022-12-12T18:13:55.165Z,12.93
2022-12-12T18:16:24.442Z,13.00
2022-12-12T18:18:51.972Z,13.63
2022-12-12T18:21:51.700Z,13.07
2022-12-12T18:24:08.693Z,12.40
2022-12-12T18:26:36.227Z,14.48
2022-12-12T18:29:05.251Z,13.70
2022-12-12T18:31:32.714Z,12.43
2022-12-12T18:34:00.112Z,12.80
2022-12-12T18:36:28.549Z,11.70
2022-12-12T18:38:56.332Z,12.43
2022-12-12T18:41:23.778Z,11.80
2022-12-12T18:43:51.022Z,11.90
2022-12-12T18:46:19.847Z,11.23
2022-12-12T18:48:47.448Z,11.70
2022-12-12T18:51:22.347Z,11.48
2022-12-12T18:53:50.438Z,11.20
2022-12-12T18:56:19.965Z,10.68
2022-12-12T18:58:47.390Z,11.43
2022-12-12T19:01:18.164Z,11.05
2022-12-12T19:03:45.892Z,11.45
2022-12-12T19:06:15.029Z,11.20
2022-12-12T19:08:42.249Z,11.82
2022-12-12T19:11:10.364Z,12.00
2022-12-12T19:13:38.051Z,11.60
2022-12-12T19:16:08.878Z,11.82
2022-12-12T19:18:36.195Z,11.70
2022-12-12T19:21:06.578Z,11.32
2022-12-12T19:23:34.257Z,11.55
2022-12-12T19:26:09.262Z,11.90
2022-12-12T19:28:36.528Z,12.07
2022-12-12T19:31:11.180Z,11.60
2022-12-12T19:33:38.447Z,12.15
2022-12-12T19:36:16.457Z,10.80
2022-12-12T19:38:44.012Z,11.50
2022-12-12T19:41:13.153Z,12.23
2022-12-12T19:43:41.635Z,10.57
2022-12-12T19:46:22.261Z,10.15
2022-12-12T19:48:53.071Z,11.52
2022-12-12T19:51:21.034Z,11.48
2022-12-12T19:53:50.192Z,12.07
2022-12-12T19:56:19.407Z,10.68
2022-12-12T19:58:46.678Z,10.35
2022-12-12T20:01:18.966Z,12.55
2022-12-12T20:03:56.541Z,11.95
2022-12-12T20:06:24.604Z,11.57
2022-12-12T20:08:52.113Z,11.30
2022-12-12T20:11:23.445Z,13.02
2022-12-12T20:13:51.901Z,12.27
2022-12-12T20:16:20.786Z,12.75
2022-12-12T20:18:49.537Z,12.80
2022-12-12T20:21:43.581Z,12.43
2022-12-12T20:24:05.144Z,11.60
2022-12-12T20:26:32.596Z,11.98
2022-12-12T20:29:00.535Z,11.43
2022-12-12T20:31:29.464Z,11.90
2022-12-12T20:33:57.521Z,11.98
2022-12-12T20:36:26.846Z,11.80
2022-12-12T20:38:55.818Z,12.40
2022-12-12T20:41:25.351Z,12.90
2022-12-12T20:43:56.366Z,12.38
2022-12-12T20:46:46.995Z,12.95
2022-12-12T20:49:17.802Z,13.27
2022-12-12T20:52:00.649Z,12.93
2022-12-12T20:54:28.790Z,12.57
2022-12-12T20:56:56.947Z,12.07
2022-12-12T20:59:24.430Z,12.98
2022-12-12T21:01:51.936Z,12.73
2022-12-12T21:04:19.303Z,12.00
2022-12-12T21:06:51.041Z,12.02
2022-12-12T21:09:23.952Z,11.65
2022-12-12T21:11:53.455Z,11.70
2022-12-12T21:14:20.707Z,10.75
2022-12-12T21:16:47.934Z,11.88
2022-12-12T21:19:16.197Z,11.82
2022-12-12T21:21:43.485Z,10.93
2022-12-12T21:24:14.380Z,11.32
2022-12-12T21:26:41.654Z,11.10
2022-12-12T21:29:08.923Z,13.10
2022-12-12T21:31:38.553Z,11.98
2022-12-12T21:34:06.310Z,11.60
2022-12-12T21:36:33.835Z,10.73
2022-12-12T21:39:01.570Z,12.02
2022-12-12T21:41:28.899Z,12.50
2022-12-12T21:43:56.403Z,11.60
2022-12-12T21:46:24.568Z,12.13
2022-12-12T21:49:10.766Z,12.88
2022-12-12T21:51:39.013Z,12.68
2022-12-12T21:54:06.567Z,11.93
2022-12-12T21:56:33.861Z,12.70
2022-12-12T21:59:01.129Z,11.65
2022-12-12T22:01:28.425Z,11.18
2022-12-12T22:03:55.734Z,11.43
2022-12-12T22:06:27.707Z,10.80
2022-12-12T22:08:55.593Z,11.43
2022-12-12T22:11:39.811Z,11.88
2022-12-12T22:14:09.806Z,10.27
2022-12-12T22:16:37.406Z,11.45
2022-12-12T22:19:10.713Z,11.02
2022-12-12T22:21:37.944Z,11.55
2022-12-12T22:24:05.816Z,11.55
2022-12-12T22:26:40.525Z,11.52
2022-12-12T22:29:10.240Z,11.48
2022-12-12T22:31:38.115Z,11.93
2022-12-12T22:34:08.096Z,12.05
2022-12-12T22:36:36.613Z,10.88
2022-12-12T22:39:04.855Z,10.82
2022-12-12T22:41:32.357Z,11.57
2022-12-12T22:44:01.190Z,11.48
2022-12-12T22:46:28.691Z,11.10
2022-12-12T22:48:57.887Z,10.65
2022-12-12T22:51:32.729Z,10.45
2022-12-12T22:54:01.456Z,11.25
2022-12-12T22:56:30.433Z,10.85
2022-12-12T22:58:57.732Z,11.05
2022-12-12T23:01:26.746Z,11.50
2022-12-12T23:03:53.997Z,10.32
2022-12-12T23:06:26.205Z,9.85
2022-12-12T23:09:07.126Z,10.85
2022-12-12T23:11:34.715Z,10.85
2022-12-12T23:14:06.807Z,11.23
2022-12-12T23:16:37.525Z,10.95
2022-12-12T23:19:05.602Z,10.30
2022-12-12T23:21:33.425Z,11.40
2022-12-12T23:24:00.715Z,10.48
2022-12-12T23:26:30.190Z,10.25
2022-12-12T23:28:58.094Z,10.63
2022-12-12T23:31:31.948Z,11.52
2022-12-12T23:36:48.696Z,11.00
2022-12-12T23:39:16.145Z,11.55
2022-12-12T23:41:44.132Z,11.38
2022-12-12T23:44:15.494Z,11.13
2022-12-12T23:46:43.333Z,11.43
2022-12-12T23:49:13.351Z,10.77
2022-12-12T23:51:45.241Z,11.55
2022-12-12T23:54:14.410Z,10.65
2022-12-12T23:56:41.763Z,11.43
2022-12-12T23:59:12.764Z,11.93
